sensor_id;sensor_type;location;lat;lon;timestamp;pressure;altitude;pressure_sealevel;temperature;humidity
65010;BME280;51556;50.002;22.014;2023-01-13T00:01:41;99284.06;;;4.85;71.62
65010;BME280;51556;50.002;22.014;2023-01-13T00:04:08;99282.66;;;4.89;71.57
65010;BME280;51556;50.002;22.014;2023-01-13T00:06:35;99282.48;;;4.89;71.44
65010;BME280;51556;50.002;22.014;2023-01-13T00:09:00;99282.30;;;4.89;71.34
65010;BME280;51556;50.002;22.014;2023-01-13T00:11:26;99277.95;;;4.88;71.47
65010;BME280;51556;50.002;22.014;2023-01-13T00:13:52;99273.58;;;4.91;71.63
65010;BME280;51556;50.002;22.014;2023-01-13T00:16:18;99271.48;;;4.96;71.28
65010;BME280;51556;50.002;22.014;2023-01-13T00:18:45;99273.20;;;4.98;71.27
65010;BME280;51556;50.002;22.014;2023-01-13T00:21:12;99276.35;;;4.97;71.50
65010;BME280;51556;50.002;22.014;2023-01-13T00:23:38;99278.64;;;4.92;71.33
65010;BME280;51556;50.002;22.014;2023-01-13T00:26:06;99275.67;;;4.89;71.60
65010;BME280;51556;50.002;22.014;2023-01-13T00:28:32;99269.05;;;4.91;71.56
65010;BME280;51556;50.002;22.014;2023-01-13T00:31:13;99267.83;;;4.92;71.62
65010;BME280;51556;50.002;22.014;2023-01-13T00:33:39;99266.78;;;4.89;71.48
65010;BME280;51556;50.002;22.014;2023-01-13T00:36:07;99269.42;;;4.84;71.57
65010;BME280;51556;50.002;22.014;2023-01-13T00:38:34;99266.12;;;4.83;71.61
65010;BME280;51556;50.002;22.014;2023-01-13T00:41:04;99266.79;;;4.88;71.96
65010;BME280;51556;50.002;22.014;2023-01-13T00:43:31;99270.98;;;4.89;71.62
65010;BME280;51556;50.002;22.014;2023-01-13T00:45:57;99269.59;;;4.88;71.71
65010;BME280;51556;50.002;22.014;2023-01-13T00:48:24;99264.86;;;4.89;71.83
65010;BME280;51556;50.002;22.014;2023-01-13T00:50:57;99266.08;;;4.92;71.77
65010;BME280;51556;50.002;22.014;2023-01-13T00:53:23;99264.84;;;4.95;71.64
65010;BME280;51556;50.002;22.014;2023-01-13T00:55:58;99264.30;;;5.03;71.60
65010;BME280;51556;50.002;22.014;2023-01-13T00:58:24;99259.21;;;5.05;71.28
65010;BME280;51556;50.002;22.014;2023-01-13T01:00:49;99261.67;;;5.04;71.40
65010;BME280;51556;50.002;22.014;2023-01-13T01:03:14;99258.52;;;5.05;71.49
65010;BME280;51556;50.002;22.014;2023-01-13T01:05:40;99256.61;;;5.03;71.63
65010;BME280;51556;50.002;22.014;2023-01-13T01:08:05;99246.34;;;4.98;71.58
65010;BME280;51556;50.002;22.014;2023-01-13T01:10:31;99244.95;;;4.97;72.01
65010;BME280;51556;50.002;22.014;2023-01-13T01:12:56;99247.93;;;4.92;72.27
65010;BME280;51556;50.002;22.014;2023-01-13T01:15:22;99244.98;;;4.87;72.46
65010;BME280;51556;50.002;22.014;2023-01-13T01:17:47;99247.98;;;4.83;72.69
65010;BME280;51556;50.002;22.014;2023-01-13T01:20:13;99248.68;;;4.83;72.66
65010;BME280;51556;50.002;22.014;2023-01-13T01:22:38;99249.05;;;4.81;72.91
65010;BME280;51556;50.002;22.014;2023-01-13T01:25:04;99249.25;;;4.77;73.08
65010;BME280;51556;50.002;22.014;2023-01-13T01:27:30;99252.55;;;4.79;72.79
65010;BME280;51556;50.002;22.014;2023-01-13T01:29:55;99252.88;;;4.82;72.94
65010;BME280;51556;50.002;22.014;2023-01-13T01:32:20;99257.20;;;4.86;72.50
65010;BME280;51556;50.002;22.014;2023-01-13T01:34:46;99258.75;;;4.92;72.77
65010;BME280;51556;50.002;22.014;2023-01-13T01:37:11;99259.80;;;4.93;72.52
65010;BME280;51556;50.002;22.014;2023-01-13T01:39:37;99258.22;;;4.94;72.73
65010;BME280;51556;50.002;22.014;2023-01-13T01:42:02;99250.71;;;4.94;72.45
65010;BME280;51556;50.002;22.014;2023-01-13T01:47:19;99253.65;;;5.03;72.39
65010;BME280;51556;50.002;22.014;2023-01-13T01:49:46;99256.94;;;5.09;72.30
65010;BME280;51556;50.002;22.014;2023-01-13T01:54:46;99249.41;;;5.14;72.43
65010;BME280;51556;50.002;22.014;2023-01-13T01:57:24;99246.27;;;5.15;72.23
65010;BME280;51556;50.002;22.014;2023-01-13T01:59:50;99240.85;;;5.15;72.27
65010;BME280;51556;50.002;22.014;2023-01-13T02:02:17;99235.96;;;5.17;72.18
65010;BME280;51556;50.002;22.014;2023-01-13T02:04:47;99234.91;;;5.18;72.13
65010;BME280;51556;50.002;22.014;2023-01-13T02:07:26;99229.45;;;5.21;71.98
65010;BME280;51556;50.002;22.014;2023-01-13T02:09:58;99226.52;;;5.19;72.23
65010;BME280;51556;50.002;22.014;2023-01-13T02:12:26;99222.86;;;5.18;72.25
65010;BME280;51556;50.002;22.014;2023-01-13T02:15:11;99213.41;;;5.20;72.20
65010;BME280;51556;50.002;22.014;2023-01-13T02:31:34;99188.08;;;5.23;72.24
65010;BME280;51556;50.002;22.014;2023-01-13T02:34:14;99186.13;;;5.28;72.19
65010;BME280;51556;50.002;22.014;2023-01-13T02:37:15;99182.63;;;5.30;71.95
65010;BME280;51556;50.002;22.014;2023-01-13T02:45:39;99189.77;;;5.32;71.75
65010;BME280;51556;50.002;22.014;2023-01-13T02:48:08;99186.47;;;5.29;72.10
65010;BME280;51556;50.002;22.014;2023-01-13T02:50:39;99189.63;;;5.28;71.82
65010;BME280;51556;50.002;22.014;2023-01-13T02:53:26;99190.85;;;5.26;71.80
65010;BME280;51556;50.002;22.014;2023-01-13T02:55:54;99185.98;;;5.25;71.98
65010;BME280;51556;50.002;22.014;2023-01-13T02:58:25;99183.72;;;5.23;71.99
65010;BME280;51556;50.002;22.014;2023-01-13T03:00:51;99185.98;;;5.23;72.08
65010;BME280;51556;50.002;22.014;2023-01-13T03:03:17;99184.05;;;5.24;72.19
65010;BME280;51556;50.002;22.014;2023-01-13T03:05:43;99183.71;;;5.25;72.40
65010;BME280;51556;50.002;22.014;2023-01-13T03:11:07;99174.06;;;5.33;71.92
65010;BME280;51556;50.002;22.014;2023-01-13T03:16:27;99169.44;;;5.45;71.63
65010;BME280;51556;50.002;22.014;2023-01-13T03:21:26;99165.87;;;5.56;71.29
65010;BME280;51556;50.002;22.014;2023-01-13T03:24:10;99162.03;;;5.54;71.33
65010;BME280;51556;50.002;22.014;2023-01-13T03:31:51;99156.79;;;5.56;71.34
65010;BME280;51556;50.002;22.014;2023-01-13T03:34:20;99151.14;;;5.59;71.43
65010;BME280;51556;50.002;22.014;2023-01-13T03:36:50;99150.15;;;5.54;71.07
65010;BME280;51556;50.002;22.014;2023-01-13T03:39:25;99146.00;;;5.50;71.16
65010;BME280;51556;50.002;22.014;2023-01-13T03:41:57;99144.95;;;5.52;71.10
65010;BME280;51556;50.002;22.014;2023-01-13T03:44:34;99142.84;;;5.52;70.88
65010;BME280;51556;50.002;22.014;2023-01-13T03:47:10;99148.48;;;5.45;71.21
65010;BME280;51556;50.002;22.014;2023-01-13T03:49:42;99148.56;;;5.34;71.36
65010;BME280;51556;50.002;22.014;2023-01-13T03:52:21;99153.11;;;5.32;71.50
65010;BME280;51556;50.002;22.014;2023-01-13T03:54:53;99158.52;;;5.33;71.39
65010;BME280;51556;50.002;22.014;2023-01-13T03:57:25;99155.39;;;5.31;71.47
65010;BME280;51556;50.002;22.014;2023-01-13T03:59:53;99157.32;;;5.30;71.70
65010;BME280;51556;50.002;22.014;2023-01-13T04:02:45;99154.38;;;5.26;71.85
65010;BME280;51556;50.002;22.014;2023-01-13T04:05:13;99150.91;;;5.23;71.63
65010;BME280;51556;50.002;22.014;2023-01-13T04:08:00;99144.46;;;5.22;71.72
65010;BME280;51556;50.002;22.014;2023-01-13T04:10:34;99148.27;;;5.24;71.97
65010;BME280;51556;50.002;22.014;2023-01-13T04:13:06;99152.13;;;5.24;71.54
65010;BME280;51556;50.002;22.014;2023-01-13T04:15:36;99149.71;;;5.21;71.95
65010;BME280;51556;50.002;22.014;2023-01-13T04:18:09;99149.73;;;5.19;71.96
65010;BME280;51556;50.002;22.014;2023-01-13T04:20:36;99146.10;;;5.16;72.08
65010;BME280;51556;50.002;22.014;2023-01-13T04:23:02;99147.48;;;5.18;72.02
65010;BME280;51556;50.002;22.014;2023-01-13T04:25:28;99145.88;;;5.20;71.86
65010;BME280;51556;50.002;22.014;2023-01-13T04:27:53;99144.29;;;5.22;71.76
65010;BME280;51556;50.002;22.014;2023-01-13T04:30:18;99144.98;;;5.21;71.67
65010;BME280;51556;50.002;22.014;2023-01-13T04:32:44;99145.85;;;5.23;71.84
65010;BME280;51556;50.002;22.014;2023-01-13T04:35:09;99147.59;;;5.23;71.83
65010;BME280;51556;50.002;22.014;2023-01-13T04:37:35;99145.84;;;5.25;71.66
65010;BME280;51556;50.002;22.014;2023-01-13T04:40:00;99144.59;;;5.28;71.48
65010;BME280;51556;50.002;22.014;2023-01-13T04:42:26;99147.58;;;5.26;71.78
65010;BME280;51556;50.002;22.014;2023-01-13T04:44:51;99146.17;;;5.27;71.74
65010;BME280;51556;50.002;22.014;2023-01-13T04:47:17;99147.05;;;5.26;71.80
65010;BME280;51556;50.002;22.014;2023-01-13T04:49:42;99140.41;;;5.27;71.63
65010;BME280;51556;50.002;22.014;2023-01-13T04:52:08;99148.42;;;5.29;71.37
65010;BME280;51556;50.002;22.014;2023-01-13T04:54:33;99154.36;;;5.31;71.81
65010;BME280;51556;50.002;22.014;2023-01-13T04:56:59;99153.48;;;5.30;71.60
65010;BME280;51556;50.002;22.014;2023-01-13T04:59:24;99149.63;;;5.31;71.80
65010;BME280;51556;50.002;22.014;2023-01-13T05:01:49;99148.02;;;5.37;71.62
65010;BME280;51556;50.002;22.014;2023-01-13T05:04:15;99145.59;;;5.35;71.49
65010;BME280;51556;50.002;22.014;2023-01-13T05:06:41;99142.98;;;5.35;71.53
65010;BME280;51556;50.002;22.014;2023-01-13T05:09:07;99146.13;;;5.34;71.65
65010;BME280;51556;50.002;22.014;2023-01-13T05:11:32;99144.73;;;5.34;71.62
65010;BME280;51556;50.002;22.014;2023-01-13T05:14:16;99142.64;;;5.33;71.79
65010;BME280;51556;50.002;22.014;2023-01-13T05:17:01;99136.87;;;5.34;71.68
65010;BME280;51556;50.002;22.014;2023-01-13T05:19:32;99132.16;;;5.33;71.68
65010;BME280;51556;50.002;22.014;2023-01-13T05:21:58;99132.52;;;5.34;71.50
65010;BME280;51556;50.002;22.014;2023-01-13T05:24:42;99138.63;;;5.32;71.65
65010;BME280;51556;50.002;22.014;2023-01-13T05:27:27;99134.60;;;5.34;71.84
65010;BME280;51556;50.002;22.014;2023-01-13T05:29:52;99136.19;;;5.31;71.62
65010;BME280;51556;50.002;22.014;2023-01-13T05:32:19;99133.56;;;5.33;71.90
65010;BME280;51556;50.002;22.014;2023-01-13T05:34:45;99131.98;;;5.33;71.90
65010;BME280;51556;50.002;22.014;2023-01-13T05:37:10;99132.52;;;5.32;71.82
65010;BME280;51556;50.002;22.014;2023-01-13T05:39:40;99135.86;;;5.28;71.87
65010;BME280;51556;50.002;22.014;2023-01-13T05:42:24;99142.16;;;5.27;72.02
65010;BME280;51556;50.002;22.014;2023-01-13T05:45:08;99136.39;;;5.29;72.16
65010;BME280;51556;50.002;22.014;2023-01-13T05:47:34;99132.14;;;5.35;72.13
65010;BME280;51556;50.002;22.014;2023-01-13T05:49:59;99132.29;;;5.41;71.74
65010;BME280;51556;50.002;22.014;2023-01-13T05:52:25;99134.23;;;5.38;71.87
65010;BME280;51556;50.002;22.014;2023-01-13T05:54:50;99135.80;;;5.37;71.86
65010;BME280;51556;50.002;22.014;2023-01-13T05:57:16;99144.35;;;5.38;71.81
65010;BME280;51556;50.002;22.014;2023-01-13T05:59:42;99145.02;;;5.41;71.77
65010;BME280;51556;50.002;22.014;2023-01-13T06:02:07;99145.69;;;5.45;71.76
65010;BME280;51556;50.002;22.014;2023-01-13T06:04:33;99147.95;;;5.47;71.66
65010;BME280;51556;50.002;22.014;2023-01-13T06:06:58;99148.64;;;5.47;71.62
65010;BME280;51556;50.002;22.014;2023-01-13T06:09:24;99151.08;;;5.49;71.58
65010;BME280;51556;50.002;22.014;2023-01-13T06:11:49;99150.20;;;5.50;71.61
65010;BME280;51556;50.002;22.014;2023-01-13T06:14:15;99149.14;;;5.52;71.77
65010;BME280;51556;50.002;22.014;2023-01-13T06:16:40;99151.17;;;5.57;71.61
65010;BME280;51556;50.002;22.014;2023-01-13T06:19:06;99151.81;;;5.62;71.53
65010;BME280;51556;50.002;22.014;2023-01-13T06:21:37;99153.36;;;5.65;71.36
65010;BME280;51556;50.002;22.014;2023-01-13T06:24:03;99156.64;;;5.69;71.36
65010;BME280;51556;50.002;22.014;2023-01-13T06:26:32;99160.99;;;5.70;71.13
65010;BME280;51556;50.002;22.014;2023-01-13T06:29:00;99163.80;;;5.69;71.00
65010;BME280;51556;50.002;22.014;2023-01-13T06:31:48;99161.36;;;5.68;71.06
65010;BME280;51556;50.002;22.014;2023-01-13T06:34:13;99164.35;;;5.66;71.03
65010;BME280;51556;50.002;22.014;2023-01-13T06:36:42;99167.33;;;5.66;70.94
65010;BME280;51556;50.002;22.014;2023-01-13T06:39:13;99170.48;;;5.64;71.11
65010;BME280;51556;50.002;22.014;2023-01-13T06:41:40;99175.34;;;5.66;70.83
65010;BME280;51556;50.002;22.014;2023-01-13T06:44:25;99176.55;;;5.68;70.98
65010;BME280;51556;50.002;22.014;2023-01-13T06:46:50;99179.84;;;5.71;70.85
65010;BME280;51556;50.002;22.014;2023-01-13T06:49:16;99176.34;;;5.73;70.93
65010;BME280;51556;50.002;22.014;2023-01-13T06:51:42;99176.86;;;5.75;70.93
65010;BME280;51556;50.002;22.014;2023-01-13T06:54:07;99179.96;;;5.79;70.81
65010;BME280;51556;50.002;22.014;2023-01-13T06:56:33;99182.02;;;5.82;70.54
65010;BME280;51556;50.002;22.014;2023-01-13T06:58:59;99182.51;;;5.87;70.65
65010;BME280;51556;50.002;22.014;2023-01-13T07:01:24;99183.21;;;5.91;70.40
65010;BME280;51556;50.002;22.014;2023-01-13T07:03:50;99177.79;;;5.90;70.53
65010;BME280;51556;50.002;22.014;2023-01-13T07:06:15;99179.72;;;5.90;70.35
65010;BME280;51556;50.002;22.014;2023-01-13T07:08:41;99182.16;;;5.90;70.53
65010;BME280;51556;50.002;22.014;2023-01-13T07:11:06;99181.63;;;5.91;70.48
65010;BME280;51556;50.002;22.014;2023-01-13T07:13:36;99177.89;;;5.95;70.45
65010;BME280;51556;50.002;22.014;2023-01-13T07:16:19;99182.61;;;5.96;70.44
65010;BME280;51556;50.002;22.014;2023-01-13T07:18:45;99181.02;;;5.96;70.19
65010;BME280;51556;50.002;22.014;2023-01-13T07:21:11;99177.54;;;5.97;70.31
65010;BME280;51556;50.002;22.014;2023-01-13T07:23:44;99178.90;;;6.00;70.18
65010;BME280;51556;50.002;22.014;2023-01-13T07:26:11;99176.24;;;6.03;70.43
65010;BME280;51556;50.002;22.014;2023-01-13T07:28:37;99175.52;;;6.06;70.18
65010;BME280;51556;50.002;22.014;2023-01-13T07:31:04;99168.45;;;6.15;69.97
65010;BME280;51556;50.002;22.014;2023-01-13T07:33:30;99178.38;;;6.18;69.99
65010;BME280;51556;50.002;22.014;2023-01-13T07:36:00;99177.80;;;6.23;70.05
65010;BME280;51556;50.002;22.014;2023-01-13T07:38:26;99183.58;;;6.23;69.54
65010;BME280;51556;50.002;22.014;2023-01-13T07:40:52;99191.45;;;6.22;69.62
65010;BME280;51556;50.002;22.014;2023-01-13T07:43:18;99202.09;;;6.24;69.57
65010;BME280;51556;50.002;22.014;2023-01-13T07:46:04;99214.33;;;6.24;69.41
65010;BME280;51556;50.002;22.014;2023-01-13T07:48:31;99222.67;;;6.28;69.53
65010;BME280;51556;50.002;22.014;2023-01-13T07:51:01;99226.40;;;6.37;69.51
65010;BME280;51556;50.002;22.014;2023-01-13T07:53:27;99230.88;;;6.43;69.22
65010;BME280;51556;50.002;22.014;2023-01-13T07:55:57;99220.36;;;6.46;69.19
65010;BME280;51556;50.002;22.014;2023-01-13T07:58:24;99211.61;;;6.46;68.72
65010;BME280;51556;50.002;22.014;2023-01-13T08:00:50;99203.75;;;6.46;68.77
65010;BME280;51556;50.002;22.014;2023-01-13T08:03:16;99198.30;;;6.49;68.88
65010;BME280;51556;50.002;22.014;2023-01-13T08:05:41;99202.11;;;6.52;68.84
65010;BME280;51556;50.002;22.014;2023-01-13T08:08:06;99200.13;;;6.57;68.64
65010;BME280;51556;50.002;22.014;2023-01-13T08:10:32;99200.29;;;6.58;68.81
65010;BME280;51556;50.002;22.014;2023-01-13T08:12:57;99197.66;;;6.59;68.40
65010;BME280;51556;50.002;22.014;2023-01-13T08:15:42;99193.63;;;6.61;68.47
65010;BME280;51556;50.002;22.014;2023-01-13T08:18:08;99194.45;;;6.65;68.44
65010;BME280;51556;50.002;22.014;2023-01-13T08:20:33;99192.48;;;6.67;68.24
65010;BME280;51556;50.002;22.014;2023-01-13T08:22:59;99199.54;;;6.76;68.16
65010;BME280;51556;50.002;22.014;2023-01-13T08:25:27;99201.21;;;6.82;68.35
65010;BME280;51556;50.002;22.014;2023-01-13T08:27:53;99204.11;;;6.88;68.06
65010;BME280;51556;50.002;22.014;2023-01-13T08:30:19;99193.23;;;6.90;67.57
65010;BME280;51556;50.002;22.014;2023-01-13T08:32:46;99198.34;;;6.88;67.50
65010;BME280;51556;50.002;22.014;2023-01-13T08:35:12;99200.05;;;6.90;67.54
65010;BME280;51556;50.002;22.014;2023-01-13T08:37:38;99194.33;;;6.87;67.32
65010;BME280;51556;50.002;22.014;2023-01-13T08:40:04;99196.71;;;6.92;67.58
65010;BME280;51556;50.002;22.014;2023-01-13T08:42:31;99195.70;;;6.89;67.45
65010;BME280;51556;50.002;22.014;2023-01-13T08:44:56;99203.47;;;6.83;67.64
65010;BME280;51556;50.002;22.014;2023-01-13T08:47:22;99210.59;;;6.88;67.58
65010;BME280;51556;50.002;22.014;2023-01-13T08:49:48;99215.63;;;6.90;67.63
65010;BME280;51556;50.002;22.014;2023-01-13T08:52:14;99214.23;;;6.90;67.69
65010;BME280;51556;50.002;22.014;2023-01-13T08:54:40;99208.81;;;6.90;67.69
65010;BME280;51556;50.002;22.014;2023-01-13T08:57:05;99209.30;;;6.92;67.78
65010;BME280;51556;50.002;22.014;2023-01-13T08:59:32;99215.64;;;6.90;67.64
65010;BME280;51556;50.002;22.014;2023-01-13T09:01:57;99208.81;;;6.90;67.80
65010;BME280;51556;50.002;22.014;2023-01-13T09:04:25;99210.86;;;6.94;67.89
65010;BME280;51556;50.002;22.014;2023-01-13T09:06:52;99210.91;;;7.02;67.85
65010;BME280;51556;50.002;22.014;2023-01-13T09:09:19;99208.20;;;7.07;67.78
65010;BME280;51556;50.002;22.014;2023-01-13T09:11:47;99205.00;;;7.11;67.68
65010;BME280;51556;50.002;22.014;2023-01-13T09:14:33;99203.40;;;7.13;67.67
65010;BME280;51556;50.002;22.014;2023-01-13T09:16:59;99199.70;;;7.15;67.59
65010;BME280;51556;50.002;22.014;2023-01-13T09:19:25;99198.82;;;7.15;67.27
65010;BME280;51556;50.002;22.014;2023-01-13T09:21:51;99194.18;;;7.08;67.46
65010;BME280;51556;50.002;22.014;2023-01-13T09:24:18;99184.23;;;7.08;67.44
65010;BME280;51556;50.002;22.014;2023-01-13T09:26:44;99186.46;;;7.10;67.64
65010;BME280;51556;50.002;22.014;2023-01-13T09:29:09;99181.73;;;7.10;68.00
65010;BME280;51556;50.002;22.014;2023-01-13T09:31:34;99182.55;;;7.14;67.88
65010;BME280;51556;50.002;22.014;2023-01-13T09:34:01;99185.91;;;7.12;67.42
65010;BME280;51556;50.002;22.014;2023-01-13T09:36:45;99185.40;;;7.10;67.86
65010;BME280;51556;50.002;22.014;2023-01-13T09:39:11;99185.88;;;7.15;67.80
65010;BME280;51556;50.002;22.014;2023-01-13T09:41:41;99183.33;;;7.22;67.59
65010;BME280;51556;50.002;22.014;2023-01-13T09:47:31;99183.09;;;7.39;66.95
65010;BME280;51556;50.002;22.014;2023-01-13T09:50:20;99178.38;;;7.37;67.18
65010;BME280;51556;50.002;22.014;2023-01-13T09:52:48;99171.05;;;7.35;66.90
65010;BME280;51556;50.002;22.014;2023-01-13T09:55:17;99163.89;;;7.34;67.32
65010;BME280;51556;50.002;22.014;2023-01-13T09:57:43;99163.85;;;7.36;67.07
65010;BME280;51556;50.002;22.014;2023-01-13T10:00:17;99163.88;;;7.34;66.78
65010;BME280;51556;50.002;22.014;2023-01-13T10:05:49;99156.44;;;7.29;66.96
65010;BME280;51556;50.002;22.014;2023-01-13T10:08:34;99155.02;;;7.29;66.70
65010;BME280;51556;50.002;22.014;2023-01-13T10:11:03;99160.80;;;7.30;66.91
65010;BME280;51556;50.002;22.014;2023-01-13T10:13:52;99157.77;;;7.21;66.58
65010;BME280;51556;50.002;22.014;2023-01-13T10:16:28;99153.58;;;7.20;66.74
65010;BME280;51556;50.002;22.014;2023-01-13T10:24:19;99141.65;;;7.11;66.91
65010;BME280;51556;50.002;22.014;2023-01-13T10:27:03;99144.27;;;7.11;66.71
65010;BME280;51556;50.002;22.014;2023-01-13T10:29:30;99143.89;;;7.13;67.11
65010;BME280;51556;50.002;22.014;2023-01-13T10:31:57;99145.40;;;7.07;66.71
65010;BME280;51556;50.002;22.014;2023-01-13T10:34:23;99143.98;;;7.07;67.13
65010;BME280;51556;50.002;22.014;2023-01-13T10:36:58;99143.17;;;7.14;67.50
65010;BME280;51556;50.002;22.014;2023-01-13T10:39:42;99139.65;;;7.15;67.06
65010;BME280;51556;50.002;22.014;2023-01-13T10:42:16;99139.52;;;7.12;67.12
65010;BME280;51556;50.002;22.014;2023-01-13T10:45:00;99138.18;;;7.08;67.28
65010;BME280;51556;50.002;22.014;2023-01-13T10:47:30;99135.66;;;7.13;67.10
65010;BME280;51556;50.002;22.014;2023-01-13T10:52:29;99126.59;;;7.11;66.91
65010;BME280;51556;50.002;22.014;2023-01-13T10:54:55;99130.98;;;7.11;66.96
65010;BME280;51556;50.002;22.014;2023-01-13T10:57:26;99127.44;;;7.03;67.33
65010;BME280;51556;50.002;22.014;2023-01-13T10:59:52;99124.20;;;7.07;67.29
65010;BME280;51556;50.002;22.014;2023-01-13T11:02:30;99125.75;;;7.09;67.73
65010;BME280;51556;50.002;22.014;2023-01-13T11:04:58;99122.92;;;7.11;67.32
65010;BME280;51556;50.002;22.014;2023-01-13T11:07:46;99126.67;;;7.06;67.03
65010;BME280;51556;50.002;22.014;2023-01-13T11:10:22;99116.09;;;7.01;67.21
65010;BME280;51556;50.002;22.014;2023-01-13T11:21:37;99112.50;;;7.05;67.66
65010;BME280;51556;50.002;22.014;2023-01-13T11:24:11;99113.98;;;7.11;67.53
65010;BME280;51556;50.002;22.014;2023-01-13T11:26:58;99110.41;;;7.16;67.75
65010;BME280;51556;50.002;22.014;2023-01-13T11:32:10;99098.52;;;7.15;67.39
65010;BME280;51556;50.002;22.014;2023-01-13T11:34:39;99094.17;;;7.13;67.53
65010;BME280;51556;50.002;22.014;2023-01-13T11:37:22;99084.27;;;7.09;67.71
65010;BME280;51556;50.002;22.014;2023-01-13T11:45:43;99077.77;;;7.01;67.91
65010;BME280;51556;50.002;22.014;2023-01-13T11:48:19;99074.44;;;7.01;67.79
65010;BME280;51556;50.002;22.014;2023-01-13T11:59:21;99071.70;;;6.97;68.26
65010;BME280;51556;50.002;22.014;2023-01-13T12:02:29;99073.56;;;7.01;67.95
65010;BME280;51556;50.002;22.014;2023-01-13T12:18:35;99063.58;;;6.78;68.50
65010;BME280;51556;50.002;22.014;2023-01-13T12:21:23;99059.52;;;6.80;68.70
65010;BME280;51556;50.002;22.014;2023-01-13T12:24:16;99063.95;;;6.77;68.44
65010;BME280;51556;50.002;22.014;2023-01-13T12:26:57;99058.00;;;6.77;68.73
65010;BME280;51556;50.002;22.014;2023-01-13T12:29:34;99059.19;;;6.79;68.73
65010;BME280;51556;50.002;22.014;2023-01-13T12:32:24;99060.03;;;6.70;68.35
65010;BME280;51556;50.002;22.014;2023-01-13T12:37:46;99058.54;;;6.65;68.86
65010;BME280;51556;50.002;22.014;2023-01-13T12:40:27;99057.74;;;6.70;68.66
65010;BME280;51556;50.002;22.014;2023-01-13T12:51:36;99057.30;;;6.65;68.93
65010;BME280;51556;50.002;22.014;2023-01-13T12:56:57;99050.64;;;6.55;68.80
65010;BME280;51556;50.002;22.014;2023-01-13T13:04:52;99050.71;;;6.50;69.15
65010;BME280;51556;50.002;22.014;2023-01-13T13:09:58;99050.00;;;6.51;69.00
65010;BME280;51556;50.002;22.014;2023-01-13T13:15:28;99058.52;;;6.55;69.34
65010;BME280;51556;50.002;22.014;2023-01-13T13:18:01;99059.96;;;6.51;68.98
65010;BME280;51556;50.002;22.014;2023-01-13T13:26:42;99058.70;;;6.53;69.12
65010;BME280;51556;50.002;22.014;2023-01-13T13:34:51;99066.34;;;6.58;68.92
65010;BME280;51556;50.002;22.014;2023-01-13T13:37:28;99068.09;;;6.57;69.12
65010;BME280;51556;50.002;22.014;2023-01-13T13:39:57;99069.77;;;6.51;68.83
65010;BME280;51556;50.002;22.014;2023-01-13T13:42:50;99068.88;;;6.50;68.88
65010;BME280;51556;50.002;22.014;2023-01-13T13:45:48;99076.23;;;6.50;68.86
65010;BME280;51556;50.002;22.014;2023-01-13T13:48:33;99065.00;;;6.54;69.00
65010;BME280;51556;50.002;22.014;2023-01-13T13:51:01;99063.17;;;6.58;69.21
65010;BME280;51556;50.002;22.014;2023-01-13T13:53:36;99057.22;;;6.60;68.53
65010;BME280;51556;50.002;22.014;2023-01-13T13:56:14;99060.63;;;6.53;68.95
65010;BME280;51556;50.002;22.014;2023-01-13T13:58:40;99064.64;;;6.54;69.12
65010;BME280;51556;50.002;22.014;2023-01-13T14:01:06;99064.29;;;6.54;69.06
65010;BME280;51556;50.002;22.014;2023-01-13T14:03:34;99058.67;;;6.55;68.74
65010;BME280;51556;50.002;22.014;2023-01-13T14:06:02;99062.01;;;6.54;68.80
65010;BME280;51556;50.002;22.014;2023-01-13T14:08:31;99060.96;;;6.55;68.78
65010;BME280;51556;50.002;22.014;2023-01-13T14:10:57;99054.48;;;6.56;68.57
65010;BME280;51556;50.002;22.014;2023-01-13T14:13:28;99053.56;;;6.58;68.66
65010;BME280;51556;50.002;22.014;2023-01-13T14:15:59;99056.41;;;6.55;68.66
65010;BME280;51556;50.002;22.014;2023-01-13T14:18:26;99049.96;;;6.53;68.69
65010;BME280;51556;50.002;22.014;2023-01-13T14:20:54;99047.02;;;6.51;68.94
65010;BME280;51556;50.002;22.014;2023-01-13T14:23:24;99046.11;;;6.53;68.83
65010;BME280;51556;50.002;22.014;2023-01-13T14:25:50;99048.37;;;6.55;68.88
65010;BME280;51556;50.002;22.014;2023-01-13T14:28:21;99049.95;;;6.54;68.75
65010;BME280;51556;50.002;22.014;2023-01-13T14:30:48;99050.52;;;6.51;68.83
65010;BME280;51556;50.002;22.014;2023-01-13T14:33:17;99050.02;;;6.49;68.93
65010;BME280;51556;50.002;22.014;2023-01-13T14:36:11;99057.71;;;6.50;68.79
65010;BME280;51556;50.002;22.014;2023-01-13T14:38:38;99056.31;;;6.49;68.88
65010;BME280;51556;50.002;22.014;2023-01-13T14:41:15;99053.95;;;6.42;69.10
65010;BME280;51556;50.002;22.014;2023-01-13T14:43:43;99052.40;;;6.41;69.19
65010;BME280;51556;50.002;22.014;2023-01-13T14:46:10;99056.93;;;6.41;69.27
65010;BME280;51556;50.002;22.014;2023-01-13T14:48:36;99060.23;;;6.43;69.03
65010;BME280;51556;50.002;22.014;2023-01-13T14:51:03;99059.56;;;6.41;69.24
65010;BME280;51556;50.002;22.014;2023-01-13T15:04:53;99063.48;;;6.24;69.42
65010;BME280;51556;50.002;22.014;2023-01-13T15:07:29;99065.98;;;6.20;69.75
65010;BME280;51556;50.002;22.014;2023-01-13T15:09:58;99065.83;;;6.18;69.90
65010;BME280;51556;50.002;22.014;2023-01-13T15:12:33;99068.29;;;6.17;70.01
65010;BME280;51556;50.002;22.014;2023-01-13T15:15:02;99063.54;;;6.20;69.81
65010;BME280;51556;50.002;22.014;2023-01-13T15:17:27;99061.41;;;6.22;69.87
65010;BME280;51556;50.002;22.014;2023-01-13T15:19:53;99062.83;;;6.21;69.97
65010;BME280;51556;50.002;22.014;2023-01-13T15:22:18;99064.40;;;6.21;69.85
65010;BME280;51556;50.002;22.014;2023-01-13T15:24:43;99062.34;;;6.17;70.01
65010;BME280;51556;50.002;22.014;2023-01-13T15:27:16;99065.70;;;6.14;70.13
65010;BME280;51556;50.002;22.014;2023-01-13T15:29:43;99065.61;;;6.06;70.29
65010;BME280;51556;50.002;22.014;2023-01-13T15:32:19;99072.09;;;6.05;70.54
65010;BME280;51556;50.002;22.014;2023-01-13T15:34:46;99063.21;;;6.02;70.46
65010;BME280;51556;50.002;22.014;2023-01-13T15:37:15;99068.95;;;6.04;70.53